createdAt,value
2022-12-14T02:18:51.728Z,99960.17
2022-12-14T02:21:43.064Z,99965.70
2022-12-14T02:24:31.745Z,99972.52
2022-12-14T02:27:10.155Z,99978.64
2022-12-14T02:29:48.136Z,99985.71
2022-12-14T02:32:14.756Z,99993.13
2022-12-14T02:34:46.478Z,99992.48
2022-12-14T02:37:28.055Z,99995.96
2022-12-14T02:40:01.026Z,99999.05
2022-12-14T02:42:49.058Z,100004.02
2022-12-14T02:45:40.842Z,100004.39
2022-12-14T02:48:29.340Z,100005.23
2022-12-14T02:51:28.527Z,100005.83
2022-12-14T02:54:00.292Z,100009.02
2022-12-14T02:56:31.697Z,100014.38
2022-12-14T02:58:58.314Z,100013.77
2022-12-14T03:01:25.889Z,100015.13
2022-12-14T03:03:52.915Z,100017.55
2022-12-14T03:06:26.261Z,100018.10
2022-12-14T03:09:01.050Z,100018.66
2022-12-14T03:11:36.788Z,100019.56
2022-12-14T03:14:06.920Z,100021.87
2022-12-14T03:16:37.348Z,100024.12
2022-12-14T03:19:37.751Z,100025.27
2022-12-14T03:22:13.564Z,100031.87
2022-12-14T03:24:44.774Z,100035.02
2022-12-14T03:27:21.504Z,100034.47
2022-12-14T03:29:50.404Z,100035.99
2022-12-14T03:32:19.317Z,100034.20
2022-12-14T03:34:57.562Z,100030.51
2022-12-14T03:37:32.991Z,100025.47
2022-12-14T03:39:59.620Z,100022.05
2022-12-14T03:42:31.508Z,100023.98
2022-12-14T03:45:05.094Z,100029.73
2022-12-14T03:48:05.549Z,100031.97
2022-12-14T03:50:38.230Z,100034.09
2022-12-14T03:53:12.566Z,100034.27
2022-12-14T03:55:48.979Z,100038.81
2022-12-14T03:58:40.980Z,100043.17
2022-12-14T04:01:13.046Z,100045.67
2022-12-14T04:03:56.634Z,100050.05
2022-12-14T04:06:34.357Z,100052.97
2022-12-14T04:09:18.273Z,100055.74
2022-12-14T04:12:10.030Z,100058.18
2022-12-14T04:14:56.426Z,100069.98
2022-12-14T04:17:47.322Z,100080.08
2022-12-14T04:20:48.015Z,100082.77
2022-12-14T04:23:37.871Z,100089.73
2022-12-14T04:26:06.365Z,100096.01
2022-12-14T04:29:00.837Z,100096.14
2022-12-14T04:31:28.536Z,100102.87
2022-12-14T04:33:55.669Z,100108.27
2022-12-14T04:36:24.139Z,100113.09
2022-12-14T04:38:53.778Z,100116.71
2022-12-14T04:41:22.353Z,100114.54
2022-12-14T04:43:49.279Z,100117.13
2022-12-14T04:46:17.997Z,100117.28
2022-12-14T04:49:03.141Z,100121.48
2022-12-14T04:51:46.560Z,100128.45
2022-12-14T04:54:23.235Z,100129.41
2022-12-14T04:56:52.231Z,100135.25
2022-12-14T04:59:18.949Z,100136.89
2022-12-14T05:01:57.466Z,100137.02
2022-12-14T05:04:43.023Z,100138.92
2022-12-14T05:07:09.628Z,100145.69
2022-12-14T05:09:43.175Z,100149.12
2022-12-14T05:12:15.860Z,100151.41
2022-12-14T05:14:46.295Z,100155.05
2022-12-14T05:17:12.974Z,100156.91
2022-12-14T05:19:48.669Z,100160.92
2022-12-14T05:22:15.970Z,100164.41
2022-12-14T05:24:42.619Z,100164.21
2022-12-14T05:27:09.384Z,100166.95
2022-12-14T05:29:36.099Z,100170.05
2022-12-14T05:32:02.875Z,100173.33
2022-12-14T05:34:29.553Z,100177.52
2022-12-14T05:36:56.413Z,100185.02
2022-12-14T05:39:23.092Z,100195.63
2022-12-14T05:41:49.775Z,100205.71
2022-12-14T05:44:16.456Z,100207.98
2022-12-14T05:46:43.059Z,100206.55
2022-12-14T05:49:09.768Z,100209.60
2022-12-14T05:51:36.427Z,100214.76
2022-12-14T05:54:03.179Z,100220.62
2022-12-14T05:56:29.792Z,100222.85
2022-12-14T05:58:56.509Z,100221.91
2022-12-14T06:01:23.171Z,100227.56
2022-12-14T06:03:53.307Z,100230.06
2022-12-14T06:06:19.955Z,100231.89
2022-12-14T06:08:46.759Z,100232.12
2022-12-14T06:11:15.224Z,100234.92
2022-12-14T06:13:42.024Z,100237.17
2022-12-14T06:16:10.461Z,100243.05
2022-12-14T06:18:40.307Z,100243.45
2022-12-14T06:21:07.028Z,100253.20
2022-12-14T06:23:33.639Z,100256.63
2022-12-14T11:17:41.195Z,100449.15
2022-12-14T11:20:17.458Z,100441.84
2022-12-14T11:22:57.938Z,100441.45
2022-12-14T11:25:31.151Z,100440.58
2022-12-14T11:28:30.094Z,100442.87
2022-12-14T11:31:27.142Z,100443.47
2022-12-14T11:33:55.038Z,100446.25
2022-12-14T11:36:31.262Z,100442.45
2022-12-14T11:39:18.438Z,100439.40
2022-12-14T11:41:49.982Z,100444.23
2022-12-14T11:44:16.595Z,100448.05
2022-12-14T11:46:56.412Z,100452.14
2022-12-14T11:49:34.175Z,100454.54
2022-12-14T11:52:18.524Z,100454.59
2022-12-14T11:55:02.285Z,100458.23
2022-12-14T11:57:36.360Z,100459.54
2022-12-14T12:00:08.320Z,100463.14
2022-12-14T12:02:37.153Z,100464.03
2022-12-14T12:05:08.288Z,100467.63
2022-12-14T12:07:36.159Z,100466.67
2022-12-14T12:10:05.913Z,100467.08
2022-12-14T12:12:32.602Z,100463.06
2022-12-14T12:14:59.287Z,100468.45
2022-12-14T12:17:42.863Z,100477.85
2022-12-14T12:20:23.860Z,100477.95
2022-12-14T12:22:52.763Z,100481.73
2022-12-14T12:25:32.197Z,100480.95
2022-12-14T12:28:06.083Z,100481.55
2022-12-14T12:30:34.262Z,100480.41
2022-12-14T12:33:06.049Z,100484.41
2022-12-14T12:35:37.742Z,100491.91
2022-12-14T12:38:18.787Z,100494.83
2022-12-14T12:40:57.745Z,100498.39
2022-12-14T12:43:34.504Z,100498.02
2022-12-14T12:46:05.545Z,100503.34
2022-12-14T12:48:41.627Z,100508.08
2022-12-14T12:51:12.337Z,100510.92
2022-12-14T12:53:41.714Z,100513.58
2022-12-14T12:56:11.005Z,100513.24
2022-12-14T12:58:38.260Z,100513.61
2022-12-14T13:01:16.126Z,100515.39
2022-12-14T13:03:45.771Z,100519.65
2022-12-14T13:06:22.176Z,100518.08
2022-12-14T13:08:51.962Z,100522.89
2022-12-14T13:11:26.544Z,100529.11
2022-12-14T13:13:56.674Z,100535.36
2022-12-14T13:16:39.272Z,100538.56
2022-12-14T13:22:18.713Z,100546.95
2022-12-14T13:24:45.721Z,100549.45
2022-12-14T13:27:40.622Z,100545.79
2022-12-14T13:30:38.547Z,100552.88
2022-12-14T13:33:56.675Z,100554.73
2022-12-14T13:37:00.821Z,100555.38
2022-12-14T13:39:42.208Z,100553.39
2022-12-14T13:42:15.333Z,100559.14
2022-12-14T13:45:00.833Z,100558.07
2022-12-14T13:47:30.006Z,100563.76
2022-12-14T13:50:34.355Z,100565.13
2022-12-14T13:52:46.708Z,100567.63
2022-12-14T13:55:29.378Z,100567.27
2022-12-14T13:58:28.236Z,100569.16
2022-12-14T14:01:23.373Z,100567.77
2022-12-14T14:04:11.021Z,100572.79
2022-12-14T14:06:39.682Z,100574.66
2022-12-14T14:09:32.835Z,100577.30
2022-12-14T14:12:02.980Z,100585.44
2022-12-14T14:14:41.414Z,100584.69
2022-12-14T14:17:26.666Z,100587.02
2022-12-14T14:19:55.109Z,100587.80
2022-12-14T14:22:25.196Z,100594.14
2022-12-14T14:25:12.553Z,100597.55
2022-12-14T14:27:40.262Z,100595.63
2022-12-14T14:30:22.185Z,100593.46
2022-12-14T14:32:48.894Z,100599.19
2022-12-14T14:35:35.729Z,100597.78
2022-12-14T14:38:25.021Z,100596.23
2022-12-14T14:43:42.572Z,100605.97
2022-12-14T14:46:09.834Z,100609.77
2022-12-14T14:48:41.985Z,100609.98
2022-12-14T14:51:26.353Z,100614.77
2022-12-14T18:56:02.851Z,100622.09
2022-12-14T18:58:29.696Z,100619.09
2022-12-14T19:00:58.126Z,100618.77
2022-12-14T19:03:25.100Z,100612.04
2022-12-14T19:05:52.293Z,100610.50
2022-12-14T19:08:19.048Z,100606.25
2022-12-14T19:10:48.140Z,100601.29
2022-12-14T19:13:26.024Z,100603.63
2022-12-14T19:15:57.713Z,100593.74
2022-12-14T19:18:24.418Z,100590.23
2022-12-14T19:20:51.036Z,100585.84
2022-12-14T19:23:18.271Z,100575.23
2022-12-14T19:25:45.390Z,100571.27
2022-12-14T19:28:32.446Z,100566.83
2022-12-14T19:30:59.099Z,100560.95
2022-12-14T19:33:27.039Z,100558.75
2022-12-14T19:35:54.019Z,100551.80
2022-12-14T19:38:20.692Z,100551.50
2022-12-14T19:41:04.299Z,100550.55
2022-12-14T19:43:31.430Z,100548.91
2022-12-14T19:45:58.475Z,100548.26
2022-12-14T19:48:25.324Z,100544.84
2022-12-14T19:50:52.010Z,100540.11
2022-12-14T19:53:23.902Z,100538.59
2022-12-14T19:55:53.839Z,100541.95
2022-12-14T19:58:22.128Z,100543.91
2022-12-14T20:00:49.953Z,100547.56
2022-12-14T20:03:16.730Z,100546.56
2022-12-14T20:06:09.846Z,100546.56
2022-12-14T20:08:36.546Z,100549.51
2022-12-14T20:11:07.947Z,100552.09
2022-12-14T20:13:35.050Z,100555.70
2022-12-14T20:16:02.185Z,100554.84
2022-12-14T20:18:29.584Z,100557.95
2022-12-14T20:21:03.831Z,100558.95
2022-12-14T20:23:31.502Z,100554.44
2022-12-14T20:26:02.451Z,100564.98
2022-12-14T20:28:29.152Z,100568.79
2022-12-14T20:30:55.877Z,100565.73
2022-12-14T20:33:28.088Z,100569.27
2022-12-14T20:35:56.847Z,100576.45
2022-12-14T20:38:23.546Z,100578.27
2022-12-14T20:40:50.182Z,100573.33
2022-12-14T20:43:16.908Z,100569.79
2022-12-14T20:45:46.673Z,100565.06
2022-12-14T20:48:13.330Z,100565.17
2022-12-14T20:50:41.728Z,100562.01
2022-12-14T20:53:08.437Z,100560.41
2022-12-14T20:55:35.196Z,100559.95
2022-12-14T20:58:01.911Z,100567.51
2022-12-14T21:00:28.834Z,100565.00
2022-12-14T21:02:55.673Z,100568.63
2022-12-14T21:05:22.511Z,100573.98
2022-12-14T21:07:49.154Z,100575.68
2022-12-14T21:10:15.893Z,100572.66
2022-12-14T21:12:42.539Z,100567.91
2022-12-14T21:15:09.322Z,100566.46
2022-12-14T21:17:35.982Z,100576.47
2022-12-14T21:20:02.902Z,100574.53
2022-12-14T21:22:30.534Z,100571.19
2022-12-14T21:25:06.119Z,100569.30
2022-12-14T21:27:33.650Z,100564.44
2022-12-14T21:30:00.645Z,100547.90
2022-12-14T21:32:27.538Z,100538.48
2022-12-14T21:34:54.223Z,100535.27
2022-12-14T21:37:21.010Z,100524.17
2022-12-14T21:39:54.342Z,100516.18
2022-12-14T21:42:22.036Z,100508.11
2022-12-14T21:44:49.574Z,100504.23
2022-12-14T21:47:17.776Z,100501.23
2022-12-14T21:49:44.854Z,100502.16
2022-12-14T21:52:13.021Z,100499.44
2022-12-14T21:54:39.969Z,100498.63
2022-12-14T21:57:25.579Z,100490.36
2022-12-14T21:59:52.198Z,100482.14
2022-12-14T22:02:20.819Z,100485.41
2022-12-14T22:04:47.709Z,100479.73
2022-12-14T22:07:18.438Z,100470.05
2022-12-14T22:09:49.599Z,100468.74
2022-12-14T22:12:17.317Z,100471.63
2022-12-14T22:14:43.927Z,100463.08
2022-12-14T22:17:11.165Z,100461.61
2022-12-14T22:19:56.576Z,100463.95
2022-12-14T22:22:23.281Z,100471.48
2022-12-14T22:24:51.046Z,100471.58
2022-12-14T22:27:18.048Z,100464.73
2022-12-14T22:29:44.737Z,100455.52
2022-12-14T22:32:12.265Z,100452.19
2022-12-14T22:34:39.183Z,100449.89
2022-12-14T22:37:05.953Z,100441.90
2022-12-14T22:39:32.660Z,100444.66
2022-12-14T22:41:59.727Z,100444.27
2022-12-14T22:44:26.479Z,100436.13
2022-12-14T22:46:53.115Z,100425.55
2022-12-14T22:49:20.327Z,100423.79
2022-12-14T22:51:47.173Z,100412.83
2022-12-14T22:54:32.015Z,100399.77
2022-12-14T22:57:00.791Z,100394.95
2022-12-14T22:59:42.975Z,100396.93
2022-12-14T23:02:09.970Z,100395.70
2022-12-14T23:04:37.425Z,100397.90
2022-12-14T23:07:04.186Z,100401.27
2022-12-14T23:09:49.547Z,100397.77
2022-12-14T23:12:35.023Z,100395.21
2022-12-14T23:15:20.399Z,100389.16
2022-12-14T23:18:05.955Z,100382.64
2022-12-14T23:20:51.283Z,100379.11
2022-12-14T23:23:36.745Z,100380.89
2022-12-14T23:26:22.147Z,100382.93
2022-12-14T23:29:07.525Z,100377.92
2022-12-14T23:31:52.861Z,100366.89
2022-12-14T23:34:37.905Z,100355.83
2022-12-14T23:37:23.229Z,100353.07
2022-12-14T23:40:08.747Z,100349.90
2022-12-14T23:42:54.119Z,100348.63
2022-12-14T23:45:39.526Z,100348.13
2022-12-14T23:48:24.913Z,100357.79
2022-12-14T23:51:10.330Z,100353.55
2022-12-14T23:53:55.734Z,100347.80
2022-12-14T23:56:41.088Z,100345.52
2022-12-14T23:59:31.832Z,100345.48
